createdAt,value
2017-10-26T00:00:39.432Z,1014.5
2017-10-26T00:01:41.854Z,1014.5
2017-10-26T00:02:44.636Z,1014.5
2017-10-26T00:03:47.064Z,1014.5
2017-10-26T00:04:49.500Z,1014.4
2017-10-26T00:05:52.633Z,1014.4
2017-10-26T00:06:55.071Z,1014.4
2017-10-26T00:07:57.496Z,1014.4
2017-10-26T00:08:59.918Z,1014.4
2017-10-26T00:10:02.347Z,1014.4
2017-10-26T00:11:04.765Z,1014.5
2017-10-26T00:12:07.186Z,1014.4
2017-10-26T00:13:09.621Z,1014.4
2017-10-26T00:14:12.045Z,1014.4
2017-10-26T00:15:14.471Z,1014.4
2017-10-26T00:16:16.894Z,1014.4
2017-10-26T00:17:19.326Z,1014.5
2017-10-26T00:18:21.757Z,1014.5
2017-10-26T00:19:24.188Z,1014.5
2017-10-26T00:20:26.964Z,1014.6
2017-10-26T00:21:29.386Z,1014.6
2017-10-26T00:22:31.822Z,1014.6
2017-10-26T00:23:34.585Z,1014.7
2017-10-26T00:24:37.010Z,1014.7
2017-10-26T00:25:39.440Z,1014.6
2017-10-26T00:26:42.228Z,1014.6
2017-10-26T00:27:44.659Z,1014.5
2017-10-26T00:28:47.083Z,1014.5
2017-10-26T00:29:49.506Z,1014.5
2017-10-26T00:30:51.945Z,1014.5
2017-10-26T00:31:54.385Z,1014.5
2017-10-26T00:32:56.808Z,1014.6
2017-10-26T00:33:59.231Z,1014.6
2017-10-26T00:35:01.658Z,1014.6
2017-10-26T00:36:04.102Z,1014.6
2017-10-26T00:37:06.530Z,1014.6
2017-10-26T00:38:08.947Z,1014.5
2017-10-26T00:39:11.366Z,1014.5
2017-10-26T00:40:13.812Z,1014.6
2017-10-26T00:41:16.244Z,1014.6
2017-10-26T00:42:18.665Z,1014.7
2017-10-26T00:43:21.093Z,1014.8
2017-10-26T00:44:23.520Z,1014.8
2017-10-26T00:45:25.945Z,1014.8
2017-10-26T00:46:28.368Z,1014.8
2017-10-26T00:47:30.805Z,1014.8
2017-10-26T00:48:33.228Z,1014.8
2017-10-26T00:49:35.662Z,1014.9
2017-10-26T00:50:38.441Z,1014.9
2017-10-26T00:51:40.868Z,1014.8
2017-10-26T00:52:43.299Z,1014.8
2017-10-26T00:53:45.729Z,1014.8
2017-10-26T00:54:48.145Z,1014.6
2017-10-26T00:55:50.946Z,1014.7
2017-10-26T00:56:53.381Z,1014.6
2017-10-26T00:57:55.807Z,1014.7
2017-10-26T00:58:58.241Z,1014.8
2017-10-26T01:00:00.672Z,1014.8
2017-10-26T01:01:03.105Z,1014.8
2017-10-26T01:02:05.537Z,1014.8
2017-10-26T01:03:08.317Z,1014.8
2017-10-26T01:04:10.734Z,1014.8
2017-10-26T01:05:13.539Z,1014.8
2017-10-26T01:06:15.963Z,1014.7
2017-10-26T01:07:18.395Z,1014.7
2017-10-26T01:08:20.820Z,1014.7
2017-10-26T01:09:23.245Z,1014.8
2017-10-26T01:10:25.671Z,1014.8
2017-10-26T01:11:28.461Z,1014.8
2017-10-26T01:12:30.888Z,1014.8
2017-10-26T01:13:33.691Z,1014.8
2017-10-26T01:14:36.126Z,1014.8
2017-10-26T01:15:38.546Z,1014.8
2017-10-26T01:16:41.330Z,1014.9
2017-10-26T01:17:43.748Z,1014.9
2017-10-26T01:18:46.547Z,1014.9
2017-10-26T01:19:49.309Z,1014.9
2017-10-26T01:20:52.097Z,1014.9
2017-10-26T01:21:54.523Z,1014.9
2017-10-26T01:22:56.953Z,1014.9
2017-10-26T01:23:59.743Z,1014.9
2017-10-26T01:25:02.180Z,1014.9
2017-10-26T01:26:04.964Z,1014.9
2017-10-26T01:27:07.759Z,1014.8
2017-10-26T01:28:10.182Z,1014.8
2017-10-26T01:29:12.611Z,1014.8
2017-10-26T01:30:15.047Z,1014.8
2017-10-26T01:31:17.468Z,1014.8
2017-10-26T01:32:19.890Z,1014.8
2017-10-26T01:33:22.325Z,1014.8
2017-10-26T01:34:24.749Z,1014.8
2017-10-26T01:35:27.184Z,1014.8
2017-10-26T01:36:29.615Z,1014.8
2017-10-26T01:37:32.386Z,1014.7
2017-10-26T01:38:34.825Z,1014.7
2017-10-26T01:39:37.251Z,1014.7
2017-10-26T01:40:39.675Z,1014.7
2017-10-26T01:41:42.101Z,1014.7
2017-10-26T01:42:44.531Z,1014.7
2017-10-26T01:43:46.972Z,1014.7
2017-10-26T01:44:49.376Z,1014.7
2017-10-26T01:45:51.803Z,1014.7
2017-10-26T01:46:54.228Z,1014.6
2017-10-26T01:47:56.655Z,1014.6
2017-10-26T01:48:59.087Z,1014.6
2017-10-26T01:50:01.515Z,1014.6
2017-10-26T01:51:03.945Z,1014.6
2017-10-26T01:52:06.397Z,1014.6
2017-10-26T01:53:08.830Z,1014.6
2017-10-26T01:54:11.263Z,1014.6
2017-10-26T01:55:13.683Z,1014.6
2017-10-26T01:56:16.110Z,1014.6
2017-10-26T01:57:18.530Z,1014.6
2017-10-26T01:58:20.956Z,1014.6
2017-10-26T01:59:23.381Z,1014.6
2017-10-26T02:00:26.163Z,1014.6
2017-10-26T02:01:28.596Z,1014.6
2017-10-26T02:02:31.021Z,1014.6
2017-10-26T02:03:33.800Z,1014.6
2017-10-26T02:04:36.236Z,1014.7
2017-10-26T02:05:38.663Z,1014.7
2017-10-26T02:06:41.090Z,1014.7
2017-10-26T02:07:43.522Z,1014.7
2017-10-26T02:08:45.948Z,1014.6
2017-10-26T02:09:48.381Z,1014.6
2017-10-26T02:10:50.808Z,1014.7
2017-10-26T02:11:53.231Z,1014.7
2017-10-26T02:12:55.657Z,1014.6
2017-10-26T02:13:58.083Z,1014.6
2017-10-26T02:15:00.511Z,1014.6
2017-10-26T02:16:02.944Z,1014.6
2017-10-26T02:17:05.376Z,1014.6
2017-10-26T02:18:07.800Z,1014.6
2017-10-26T02:19:10.243Z,1014.6
2017-10-26T02:20:12.669Z,1014.6
2017-10-26T02:21:15.092Z,1014.6
2017-10-26T02:22:17.523Z,1014.6
2017-10-26T02:23:19.949Z,1014.6
2017-10-26T02:24:22.757Z,1014.6
2017-10-26T02:25:25.187Z,1014.6
2017-10-26T02:26:27.612Z,1014.5
2017-10-26T02:27:30.051Z,1014.6
2017-10-26T02:28:32.462Z,1014.5
2017-10-26T02:29:34.895Z,1014.5
2017-10-26T02:30:37.331Z,1014.5
2017-10-26T02:31:39.755Z,1014.6
2017-10-26T02:32:42.176Z,1014.5
2017-10-26T02:33:44.615Z,1014.5
2017-10-26T02:34:47.411Z,1014.5
2017-10-26T02:35:50.194Z,1014.5
2017-10-26T02:36:52.626Z,1014.5
2017-10-26T02:37:55.053Z,1014.5
2017-10-26T02:38:57.481Z,1014.5
2017-10-26T02:40:00.635Z,1014.6
2017-10-26T02:41:03.055Z,1014.5
2017-10-26T02:42:05.484Z,1014.6
2017-10-26T02:43:07.922Z,1014.6
2017-10-26T02:44:10.344Z,1014.6
2017-10-26T02:45:12.781Z,1014.6
2017-10-26T02:46:15.203Z,1014.7
2017-10-26T02:47:17.626Z,1014.6
2017-10-26T02:48:20.051Z,1014.6
2017-10-26T02:49:22.469Z,1014.6
2017-10-26T02:50:24.898Z,1014.6
2017-10-26T02:51:27.324Z,1014.6
2017-10-26T02:52:29.737Z,1014.6
2017-10-26T02:53:32.178Z,1014.6
2017-10-26T02:54:34.607Z,1014.6
2017-10-26T02:55:37.029Z,1014.5
2017-10-26T02:56:39.452Z,1014.6
2017-10-26T02:57:42.240Z,1014.6
2017-10-26T02:58:44.667Z,1014.6
2017-10-26T02:59:47.100Z,1014.5
2017-10-26T03:00:49.513Z,1014.5
2017-10-26T03:01:51.945Z,1014.4
2017-10-26T03:02:54.367Z,1014.4
2017-10-26T03:03:56.796Z,1014.5
2017-10-26T03:04:59.228Z,1014.5
2017-10-26T03:06:02.008Z,1014.5
2017-10-26T03:07:04.436Z,1014.5
2017-10-26T03:08:06.874Z,1014.6
2017-10-26T03:09:09.297Z,1014.7
2017-10-26T03:10:11.713Z,1014.7
2017-10-26T03:11:14.141Z,1014.8
2017-10-26T03:12:16.575Z,1014.7
2017-10-26T03:13:18.993Z,1014.6
2017-10-26T03:14:21.430Z,1014.6
2017-10-26T03:15:23.859Z,1014.7
2017-10-26T03:16:26.291Z,1014.7
2017-10-26T03:17:28.705Z,1014.7
2017-10-26T03:18:31.145Z,1014.7
2017-10-26T03:19:33.560Z,1014.7
2017-10-26T03:20:35.990Z,1014.7
2017-10-26T03:21:38.412Z,1014.7
2017-10-26T03:22:40.843Z,1014.7
2017-10-26T03:23:43.274Z,1014.6
2017-10-26T03:24:45.716Z,1014.6
2017-10-26T03:25:48.128Z,1014.6
2017-10-26T03:26:50.917Z,1014.5
2017-10-26T03:27:53.339Z,1014.5
2017-10-26T03:28:55.774Z,1014.5
2017-10-26T03:29:58.200Z,1014.5
2017-10-26T03:31:00.640Z,1014.5
2017-10-26T03:32:03.064Z,1014.6
2017-10-26T03:33:05.501Z,1014.7
2017-10-26T03:34:07.923Z,1014.8
2017-10-26T03:35:10.353Z,1014.7
2017-10-26T03:36:12.775Z,1014.7
2017-10-26T03:37:15.200Z,1014.7
2017-10-26T03:38:17.627Z,1014.7
2017-10-26T03:39:20.058Z,1014.7
2017-10-26T03:40:22.489Z,1014.7
2017-10-26T03:41:24.913Z,1014.6
2017-10-26T03:42:27.706Z,1014.5
2017-10-26T03:43:30.144Z,1014.6
2017-10-26T03:44:32.565Z,1014.6
2017-10-26T03:45:34.997Z,1014.7
2017-10-26T03:46:37.427Z,1014.7
2017-10-26T03:47:39.850Z,1014.7
2017-10-26T03:48:42.277Z,1014.7
2017-10-26T03:49:44.711Z,1014.7
2017-10-26T03:50:47.126Z,1014.7
2017-10-26T03:51:49.549Z,1014.7
2017-10-26T03:52:51.980Z,1014.7
2017-10-26T03:53:54.397Z,1014.7
2017-10-26T03:54:57.179Z,1014.7
2017-10-26T03:55:59.602Z,1014.8
2017-10-26T03:57:02.026Z,1014.7
2017-10-26T03:58:04.470Z,1014.7
2017-10-26T03:59:06.898Z,1014.6
2017-10-26T04:00:09.329Z,1014.7
2017-10-26T04:01:11.756Z,1014.7
2017-10-26T04:02:14.180Z,1014.7
2017-10-26T04:03:16.606Z,1014.6
2017-10-26T04:04:19.034Z,1014.7
2017-10-26T04:05:21.449Z,1014.7
2017-10-26T04:06:23.870Z,1014.7
2017-10-26T04:07:26.663Z,1014.7
2017-10-26T04:08:29.090Z,1014.7
2017-10-26T04:09:31.517Z,1014.7
2017-10-26T04:10:33.947Z,1014.7
2017-10-26T04:11:36.382Z,1014.6
2017-10-26T04:12:38.803Z,1014.6
2017-10-26T04:13:41.227Z,1014.6
2017-10-26T04:14:43.643Z,1014.7
2017-10-26T04:15:46.064Z,1014.7
2017-10-26T04:16:48.506Z,1014.7
2017-10-26T04:17:50.928Z,1014.7
2017-10-26T04:18:53.361Z,1014.7
2017-10-26T04:19:55.784Z,1014.7
2017-10-26T04:20:58.215Z,1014.8
2017-10-26T04:22:00.650Z,1014.8
2017-10-26T04:23:03.077Z,1014.7
2017-10-26T04:24:05.505Z,1014.7
2017-10-26T04:25:07.928Z,1014.7
2017-10-26T04:26:10.362Z,1014.6
2017-10-26T04:27:12.790Z,1014.7
2017-10-26T04:28:15.580Z,1014.7
2017-10-26T04:29:17.995Z,1014.6
2017-10-26T04:30:20.421Z,1014.7
2017-10-26T04:31:22.862Z,1014.6
2017-10-26T04:32:25.277Z,1014.6
2017-10-26T04:33:28.066Z,1014.6
2017-10-26T04:34:30.847Z,1014.5
2017-10-26T04:35:33.275Z,1014.5
2017-10-26T04:36:35.708Z,1014.5
2017-10-26T04:37:38.141Z,1014.5
2017-10-26T04:38:40.553Z,1014.5
2017-10-26T04:39:42.985Z,1014.5
2017-10-26T04:40:45.416Z,1014.5
2017-10-26T04:41:47.851Z,1014.6
2017-10-26T04:42:50.266Z,1014.6
2017-10-26T04:43:52.697Z,1014.6
2017-10-26T04:44:55.122Z,1014.6
2017-10-26T04:45:57.555Z,1014.5
2017-10-26T04:46:59.983Z,1014.6
2017-10-26T04:48:02.777Z,1014.6
2017-10-26T04:49:05.220Z,1014.5
2017-10-26T04:50:07.812Z,1014.5
2017-10-26T04:51:10.238Z,1014.5
2017-10-26T04:52:13.017Z,1014.5
2017-10-26T04:53:15.449Z,1014.5
2017-10-26T04:54:17.882Z,1014.4
2017-10-26T04:55:20.312Z,1014.4
2017-10-26T04:56:22.747Z,1014.5
2017-10-26T04:57:25.174Z,1014.5
2017-10-26T04:58:27.604Z,1014.4
2017-10-26T04:59:30.391Z,1014.4
2017-10-26T05:00:32.832Z,1014.5
2017-10-26T05:01:35.243Z,1014.4
2017-10-26T05:02:37.677Z,1014.4
2017-10-26T05:03:40.093Z,1014.4
2017-10-26T05:04:42.894Z,1014.4
2017-10-26T05:05:45.324Z,1014.3
2017-10-26T05:06:47.750Z,1014.3
2017-10-26T05:07:50.184Z,1014.2
2017-10-26T05:08:52.612Z,1014.2
2017-10-26T05:09:55.040Z,1014.3
2017-10-26T05:10:57.467Z,1014.3
2017-10-26T05:11:59.892Z,1014.3
2017-10-26T05:13:02.333Z,1014.4
2017-10-26T05:14:04.746Z,1014.4
2017-10-26T05:15:07.260Z,1014.4
2017-10-26T05:16:09.691Z,1014.4
2017-10-26T05:17:12.119Z,1014.3
2017-10-26T05:18:14.547Z,1014.3
2017-10-26T05:19:16.979Z,1014.3
2017-10-26T05:20:19.404Z,1014.3
2017-10-26T05:21:21.840Z,1014.3
2017-10-26T05:22:24.256Z,1014.2
2017-10-26T05:23:26.685Z,1014.2
2017-10-26T05:24:31.739Z,1014.3
2017-10-26T05:25:44.030Z,1014.2
2017-10-26T05:26:46.458Z,1014.2
2017-10-26T05:27:48.883Z,1014.2
2017-10-26T05:28:51.308Z,1014.2
2017-10-26T05:29:53.851Z,1014.2
2017-10-26T05:30:57.097Z,1014.2
2017-10-26T05:31:59.533Z,1014.2
2017-10-26T05:33:01.956Z,1014.3
2017-10-26T05:34:04.385Z,1014.3
2017-10-26T05:35:07.192Z,1014.3
2017-10-26T05:36:09.618Z,1014.3
2017-10-26T05:37:12.045Z,1014.3
2017-10-26T05:38:14.464Z,1014.4
2017-10-26T05:39:16.883Z,1014.4
2017-10-26T05:40:19.331Z,1014.4
2017-10-26T05:41:21.756Z,1014.4
2017-10-26T05:42:24.536Z,1014.4
2017-10-26T05:43:26.964Z,1014.3
2017-10-26T05:44:29.400Z,1014.3
2017-10-26T05:45:31.824Z,1014.4
2017-10-26T05:46:34.263Z,1014.4
2017-10-26T05:47:36.686Z,1014.4
2017-10-26T05:48:39.465Z,1014.4
2017-10-26T05:49:41.900Z,1014.4
2017-10-26T05:50:44.328Z,1014.4
2017-10-26T05:51:46.750Z,1014.5
2017-10-26T05:52:49.185Z,1014.6
2017-10-26T05:53:52.330Z,1014.6
2017-10-26T05:54:54.766Z,1014.7
2017-10-26T05:55:57.190Z,1014.7
2017-10-26T05:56:59.615Z,1014.6
2017-10-26T05:58:02.041Z,1014.7
2017-10-26T05:59:04.474Z,1014.7
2017-10-26T06:00:06.905Z,1014.8
2017-10-26T06:01:09.347Z,1014.8
2017-10-26T06:02:11.754Z,1014.7
2017-10-26T06:03:14.185Z,1014.8
2017-10-26T06:04:16.976Z,1014.8
2017-10-26T06:05:19.400Z,1014.9
2017-10-26T06:06:21.828Z,1014.8
2017-10-26T06:07:24.256Z,1014.9
2017-10-26T06:08:26.679Z,1014.8
2017-10-26T06:09:29.104Z,1014.7
2017-10-26T06:10:31.527Z,1014.6
2017-10-26T06:11:33.974Z,1014.5
2017-10-26T06:12:36.400Z,1014.5
2017-10-26T06:13:39.178Z,1014.5
2017-10-26T06:14:41.616Z,1014.6
2017-10-26T06:15:44.033Z,1014.5
2017-10-26T06:16:46.462Z,1014.5
2017-10-26T06:17:48.891Z,1014.5
2017-10-26T06:18:51.309Z,1014.5
2017-10-26T06:19:53.727Z,1014.5
2017-10-26T06:20:56.165Z,1014.5
2017-10-26T06:21:58.592Z,1014.4
2017-10-26T06:23:01.378Z,1014.3
2017-10-26T06:24:03.816Z,1014.2
2017-10-26T06:25:06.241Z,1014.2
2017-10-26T06:26:08.676Z,1014.3
2017-10-26T06:27:11.099Z,1014.3
2017-10-26T06:28:13.524Z,1014.3
2017-10-26T06:29:15.964Z,1014.4
2017-10-26T06:30:18.749Z,1014.4
2017-10-26T06:31:21.170Z,1014.5
2017-10-26T06:32:23.598Z,1014.4
2017-10-26T06:33:26.035Z,1014.5
2017-10-26T06:34:28.454Z,1014.4
2017-10-26T06:35:30.888Z,1014.4
2017-10-26T06:36:33.319Z,1014.3
2017-10-26T06:37:35.743Z,1014.3
2017-10-26T06:38:38.173Z,1014.3
2017-10-26T06:39:40.598Z,1014.3
2017-10-26T06:40:43.023Z,1014.3
2017-10-26T06:41:45.459Z,1014.2
2017-10-26T06:42:47.879Z,1014.3
2017-10-26T06:43:50.318Z,1014.3
2017-10-26T06:44:52.735Z,1014.5
2017-10-26T06:45:55.170Z,1014.5
2017-10-26T06:46:57.947Z,1014.5
2017-10-26T06:48:00.373Z,1014.5
2017-10-26T06:49:02.801Z,1014.6
2017-10-26T06:50:40.377Z,1014.6
2017-10-26T06:51:42.748Z,1014.5
2017-10-26T06:52:45.119Z,1014.5
2017-10-26T06:53:47.508Z,1014.4
2017-10-26T06:54:49.868Z,1014.4
2017-10-26T06:55:52.247Z,1014.4
2017-10-26T06:56:54.632Z,1014.5
2017-10-26T06:57:57.351Z,1014.4
2017-10-26T06:58:59.730Z,1014.4
2017-10-26T07:00:02.106Z,1014.3
2017-10-26T07:01:04.471Z,1014.4
2017-10-26T07:02:07.211Z,1014.4
2017-10-26T07:03:09.587Z,1014.5
2017-10-26T07:04:11.948Z,1014.5
2017-10-26T07:05:14.330Z,1014.6
2017-10-26T07:06:16.710Z,1014.6
2017-10-26T07:07:19.082Z,1014.6
2017-10-26T07:08:21.454Z,1014.5
2017-10-26T07:09:23.839Z,1014.5
2017-10-26T07:10:26.208Z,1014.6
2017-10-26T07:11:28.587Z,1014.7
2017-10-26T07:12:30.959Z,1014.7
2017-10-26T07:13:33.331Z,1014.7
2017-10-26T07:14:36.056Z,1014.7
2017-10-26T07:15:38.432Z,1014.8
2017-10-26T07:16:40.803Z,1014.7
2017-10-26T07:17:43.192Z,1014.6
2017-10-26T07:18:45.578Z,1014.6
2017-10-26T07:19:47.952Z,1014.6
2017-10-26T07:20:50.700Z,1014.6
2017-10-26T07:21:53.080Z,1014.6
2017-10-26T07:22:55.450Z,1014.6
2017-10-26T07:23:57.831Z,1014.6
2017-10-26T07:25:00.562Z,1014.5
2017-10-26T07:26:02.942Z,1014.6
2017-10-26T07:27:05.314Z,1014.6
2017-10-26T07:28:08.066Z,1014.7
2017-10-26T07:29:10.444Z,1014.7
2017-10-26T07:30:12.823Z,1014.6
2017-10-26T07:31:15.546Z,1014.7
2017-10-26T07:32:17.922Z,1014.5
2017-10-26T07:33:20.301Z,1014.5
2017-10-26T07:34:22.681Z,1014.4
2017-10-26T07:35:25.057Z,1014.5
2017-10-26T07:36:27.429Z,1014.5
2017-10-26T07:37:29.819Z,1014.4
2017-10-26T07:38:32.183Z,1014.4
2017-10-26T07:39:34.553Z,1014.4
2017-10-26T07:40:36.921Z,1014.4
2017-10-26T07:41:39.297Z,1014.4
2017-10-26T07:42:41.661Z,1014.4
2017-10-26T07:43:44.384Z,1014.4
2017-10-26T07:44:46.765Z,1014.4
2017-10-26T07:45:49.493Z,1014.4
2017-10-26T07:46:51.871Z,1014.3
2017-10-26T07:47:54.252Z,1014.5
2017-10-26T07:48:56.627Z,1014.4
2017-10-26T07:49:59.359Z,1014.5
2017-10-26T07:51:01.742Z,1014.5
2017-10-26T07:52:04.104Z,1014.5
2017-10-26T07:53:06.490Z,1014.5
2017-10-26T07:54:08.867Z,1014.5
2017-10-26T07:55:11.238Z,1014.6
2017-10-26T07:56:13.614Z,1014.6
2017-10-26T07:57:15.993Z,1014.6
2017-10-26T07:58:18.368Z,1014.6
2017-10-26T07:59:21.109Z,1014.6
2017-10-26T08:00:23.481Z,1014.5
2017-10-26T08:01:25.849Z,1014.5
2017-10-26T08:02:28.235Z,1014.5
2017-10-26T08:03:30.605Z,1014.5
2017-10-26T08:04:32.980Z,1014.5
2017-10-26T08:05:35.700Z,1014.5
2017-10-26T08:06:38.071Z,1014.4
2017-10-26T08:07:40.460Z,1014.4
2017-10-26T08:08:42.818Z,1014.5
2017-10-26T08:09:45.199Z,1014.5
2017-10-26T08:10:47.576Z,1014.5
2017-10-26T08:11:49.947Z,1014.4
2017-10-26T08:12:52.325Z,1014.5
2017-10-26T08:13:54.706Z,1014.6
2017-10-26T08:14:57.077Z,1014.5
2017-10-26T08:15:59.464Z,1014.6
2017-10-26T08:17:01.847Z,1014.5
2017-10-26T08:18:04.222Z,1014.5
2017-10-26T08:19:06.596Z,1014.6
2017-10-26T08:20:08.971Z,1014.5
2017-10-26T08:21:11.342Z,1014.5
2017-10-26T08:22:14.065Z,1014.4
2017-10-26T08:23:16.435Z,1014.4
2017-10-26T08:24:18.805Z,1014.4
2017-10-26T08:25:21.189Z,1014.4
2017-10-26T08:26:23.554Z,1014.5
2017-10-26T08:27:25.929Z,1014.4
2017-10-26T08:28:28.299Z,1014.4
2017-10-26T08:29:30.681Z,1014.5
2017-10-26T08:30:33.060Z,1014.5
2017-10-26T08:31:35.433Z,1014.5
2017-10-26T08:32:37.812Z,1014.5
2017-10-26T08:33:40.194Z,1014.5
2017-10-26T08:34:42.565Z,1014.5
2017-10-26T08:35:44.948Z,1014.5
2017-10-26T08:36:47.321Z,1014.4
2017-10-26T08:37:50.063Z,1014.4
2017-10-26T08:38:52.440Z,1014.4
2017-10-26T08:39:54.809Z,1014.5
2017-10-26T08:40:57.188Z,1014.4
2017-10-26T08:41:59.579Z,1014.4
2017-10-26T08:43:01.956Z,1014.3
2017-10-26T08:44:04.330Z,1014.4
2017-10-26T08:45:06.704Z,1014.4
2017-10-26T08:46:09.083Z,1014.3
2017-10-26T08:47:11.453Z,1014.3
2017-10-26T08:48:13.822Z,1014.3
2017-10-26T08:49:16.188Z,1014.3
2017-10-26T08:50:18.920Z,1014.4
2017-10-26T08:51:21.288Z,1014.4
2017-10-26T08:52:23.660Z,1014.4
2017-10-26T08:53:26.043Z,1014.3
2017-10-26T08:54:28.419Z,1014.4
2017-10-26T08:55:30.795Z,1014.3
2017-10-26T08:56:33.179Z,1014.3
2017-10-26T08:57:35.556Z,1014.3
2017-10-26T08:58:37.938Z,1014.3
2017-10-26T08:59:40.327Z,1014.3
2017-10-26T09:00:42.688Z,1014.3
2017-10-26T09:01:45.070Z,1014.3
2017-10-26T09:02:47.451Z,1014.3
2017-10-26T09:03:49.827Z,1014.2
2017-10-26T09:04:52.205Z,1014.2
2017-10-26T09:05:54.585Z,1014.2
2017-10-26T09:06:56.964Z,1014.2
2017-10-26T09:07:59.336Z,1014.1
2017-10-26T09:09:01.719Z,1014.1
2017-10-26T09:10:04.087Z,1014.1
2017-10-26T09:11:06.463Z,1014.1
2017-10-26T09:12:08.840Z,1014.1
2017-10-26T09:13:11.222Z,1014.1
2017-10-26T09:14:13.591Z,1014.1
2017-10-26T09:15:16.313Z,1014.2
2017-10-26T09:16:18.693Z,1014.1
2017-10-26T09:17:21.071Z,1014.1
2017-10-26T09:18:23.444Z,1014.1
2017-10-26T09:19:25.822Z,1014.1
2017-10-26T09:20:28.200Z,1014.1
2017-10-26T09:21:30.580Z,1014
2017-10-26T09:22:32.957Z,1014
2017-10-26T09:23:35.333Z,1014
2017-10-26T09:24:37.710Z,1014
2017-10-26T09:25:40.095Z,1014
2017-10-26T09:26:42.837Z,1014.1
2017-10-26T09:27:45.215Z,1014
2017-10-26T09:28:47.604Z,1014.2
2017-10-26T09:29:50.345Z,1014
2017-10-26T09:30:52.703Z,1014.1
2017-10-26T09:31:55.426Z,1014
2017-10-26T09:32:57.803Z,1014
2017-10-26T09:34:00.556Z,1014
2017-10-26T09:35:02.921Z,1014
2017-10-26T09:36:05.301Z,1014.1
2017-10-26T09:37:07.689Z,1014.1
2017-10-26T09:38:10.063Z,1014.1
2017-10-26T09:39:12.440Z,1014.1
2017-10-26T09:40:14.812Z,1014.1
2017-10-26T09:41:17.205Z,1014.1
2017-10-26T09:42:19.573Z,1014.1
2017-10-26T09:43:21.953Z,1014.1
2017-10-26T09:44:24.338Z,1014.1
2017-10-26T09:45:27.057Z,1014.1
2017-10-26T09:46:29.442Z,1014
2017-10-26T09:47:31.826Z,1014
2017-10-26T09:48:34.193Z,1014
2017-10-26T09:49:36.577Z,1014
2017-10-26T09:50:38.958Z,1014
2017-10-26T09:51:41.338Z,1014
2017-10-26T09:52:43.720Z,1014
2017-10-26T09:53:46.101Z,1014
2017-10-26T09:54:48.484Z,1013.9
2017-10-26T09:55:50.867Z,1014
2017-10-26T09:56:53.245Z,1014
2017-10-26T09:57:55.612Z,1013.9
2017-10-26T09:58:58.000Z,1014
2017-10-26T10:00:00.722Z,1014
2017-10-26T10:01:03.304Z,1014
2017-10-26T10:02:05.678Z,1014
2017-10-26T10:03:08.056Z,1013.9
2017-10-26T10:04:10.432Z,1013.9
2017-10-26T10:05:12.822Z,1014
2017-10-26T10:06:15.203Z,1013.9
2017-10-26T10:07:17.565Z,1014
2017-10-26T10:08:19.949Z,1014
2017-10-26T10:09:22.680Z,1014
2017-10-26T10:10:25.062Z,1014
2017-10-26T10:11:27.432Z,1014
2017-10-26T10:12:29.812Z,1013.9
2017-10-26T10:13:32.556Z,1014
2017-10-26T10:14:34.941Z,1014
2017-10-26T10:15:37.318Z,1013.9
2017-10-26T10:16:40.052Z,1013.9
2017-10-26T10:17:42.433Z,1013.9
2017-10-26T10:18:44.808Z,1013.9
2017-10-26T10:19:47.181Z,1013.9
2017-10-26T10:20:49.573Z,1013.8
2017-10-26T10:21:51.927Z,1013.9
2017-10-26T10:22:54.316Z,1013.9
2017-10-26T10:23:57.073Z,1013.9
2017-10-26T10:24:59.452Z,1013.8
2017-10-26T10:26:01.833Z,1013.8
2017-10-26T10:27:04.214Z,1013.9
2017-10-26T10:28:06.587Z,1013.8
2017-10-26T10:29:08.983Z,1013.8
2017-10-26T10:30:11.356Z,1013.8
2017-10-26T10:31:14.083Z,1013.8
2017-10-26T10:32:16.465Z,1013.8
2017-10-26T10:33:18.834Z,1013.8
2017-10-26T10:34:21.213Z,1013.8
2017-10-26T10:35:23.597Z,1013.9
2017-10-26T10:36:25.968Z,1013.9
2017-10-26T10:37:28.348Z,1013.9
2017-10-26T10:38:30.718Z,1013.9
2017-10-26T10:39:33.102Z,1013.9
2017-10-26T10:40:35.847Z,1013.9
2017-10-26T10:41:38.224Z,1013.9
2017-10-26T10:42:40.605Z,1013.9
2017-10-26T10:43:42.982Z,1013.9
2017-10-26T10:44:45.365Z,1013.9
2017-10-26T10:45:47.745Z,1014
2017-10-26T10:46:50.126Z,1013.9
2017-10-26T10:47:52.493Z,1013.9
2017-10-26T10:48:54.865Z,1013.9
2017-10-26T10:49:57.613Z,1013.9
2017-10-26T10:50:59.984Z,1013.8
2017-10-26T10:52:02.370Z,1013.8
2017-10-26T10:53:04.737Z,1013.7
2017-10-26T10:54:07.114Z,1013.7
2017-10-26T10:55:09.502Z,1013.6
2017-10-26T10:56:11.870Z,1013.6
2017-10-26T10:57:14.249Z,1013.6
2017-10-26T10:58:16.620Z,1013.5
2017-10-26T10:59:19.351Z,1013.5
2017-10-26T11:00:21.734Z,1013.5
2017-10-26T11:01:24.119Z,1013.5
2017-10-26T11:02:26.483Z,1013.5
2017-10-26T11:03:29.213Z,1013.5
2017-10-26T11:04:31.605Z,1013.5
2017-10-26T11:05:33.988Z,1013.5
2017-10-26T11:06:36.355Z,1013.5
2017-10-26T11:07:38.748Z,1013.5
2017-10-26T11:08:41.822Z,1013.5
2017-10-26T11:09:44.200Z,1013.5
2017-10-26T11:10:46.577Z,1013.5
2017-10-26T11:11:48.962Z,1013.4
2017-10-26T11:12:51.336Z,1013.5
2017-10-26T11:13:53.725Z,1013.5
2017-10-26T11:14:56.098Z,1013.4
2017-10-26T11:15:58.470Z,1013.5
2017-10-26T11:17:00.851Z,1013.4
2017-10-26T11:18:03.222Z,1013.4
2017-10-26T11:19:05.600Z,1013.4
2017-10-26T11:20:07.985Z,1013.3
2017-10-26T11:21:10.736Z,1013.4
2017-10-26T11:22:13.116Z,1013.3
2017-10-26T11:23:15.844Z,1013.5
2017-10-26T11:24:18.218Z,1013.4
2017-10-26T11:25:20.586Z,1013.4
2017-10-26T11:26:22.970Z,1013.4
2017-10-26T11:27:25.336Z,1013.3
2017-10-26T11:28:27.733Z,1013.3
2017-10-26T11:29:30.111Z,1013.3
2017-10-26T11:30:32.487Z,1013.3
2017-10-26T11:31:34.882Z,1013.3
2017-10-26T11:32:37.252Z,1013.3
2017-10-26T11:33:39.631Z,1013.3
2017-10-26T11:34:42.004Z,1013.3
2017-10-26T11:35:44.396Z,1013.3
2017-10-26T11:36:46.772Z,1013.2
2017-10-26T11:37:49.135Z,1013.3
2017-10-26T11:38:51.527Z,1013.2
2017-10-26T11:39:53.907Z,1013.3
2017-10-26T11:40:56.635Z,1013.3
2017-10-26T11:41:59.380Z,1013.2
2017-10-26T11:43:01.756Z,1013.2
2017-10-26T11:44:04.132Z,1013.2
2017-10-26T11:45:06.566Z,1013.2
2017-10-26T11:46:09.285Z,1013.1
2017-10-26T11:47:11.665Z,1013.1
2017-10-26T11:48:14.045Z,1013.2
2017-10-26T11:49:16.427Z,1013.1
2017-10-26T11:50:18.813Z,1013.1
2017-10-26T11:51:21.229Z,1013.1
2017-10-26T11:52:23.598Z,1013
2017-10-26T11:53:25.985Z,1013.1
2017-10-26T11:54:28.357Z,1013.1
2017-10-26T11:55:30.743Z,1013
2017-10-26T11:56:33.475Z,1013
2017-10-26T11:57:35.857Z,1013
2017-10-26T11:58:38.238Z,1013
2017-10-26T11:59:40.622Z,1013
2017-10-26T12:00:42.996Z,1012.9
2017-10-26T12:01:45.721Z,1012.9
2017-10-26T12:02:48.093Z,1013
2017-10-26T12:03:50.475Z,1012.9
2017-10-26T12:04:52.863Z,1013
2017-10-26T12:05:55.599Z,1013
2017-10-26T12:06:57.971Z,1012.9
2017-10-26T12:08:00.364Z,1013
2017-10-26T12:09:02.740Z,1013
2017-10-26T12:10:05.124Z,1012.9
2017-10-26T12:11:07.493Z,1012.8
2017-10-26T12:12:09.879Z,1012.8
2017-10-26T12:13:12.953Z,1012.9
2017-10-26T12:14:15.334Z,1012.9
2017-10-26T12:15:17.709Z,1012.8
2017-10-26T12:16:20.091Z,1012.8
2017-10-26T12:17:22.470Z,1012.8
2017-10-26T12:18:24.860Z,1012.8
2017-10-26T12:19:27.230Z,1012.8
2017-10-26T12:20:29.613Z,1012.8
2017-10-26T12:21:32.363Z,1012.8
2017-10-26T12:22:35.109Z,1012.9
2017-10-26T12:23:37.494Z,1012.7
2017-10-26T12:24:39.878Z,1012.8
2017-10-26T12:25:42.245Z,1012.7
2017-10-26T12:26:44.631Z,1012.8
2017-10-26T12:27:47.019Z,1012.7
2017-10-26T12:28:49.392Z,1012.8
2017-10-26T12:29:51.766Z,1012.7
2017-10-26T12:30:54.139Z,1012.7
2017-10-26T12:31:56.865Z,1012.6
2017-10-26T12:32:59.283Z,1012.6
2017-10-26T12:34:01.667Z,1012.5
2017-10-26T12:35:04.041Z,1012.6
2017-10-26T12:36:06.426Z,1012.5
2017-10-26T12:37:08.805Z,1012.5
2017-10-26T12:38:11.185Z,1012.5
2017-10-26T12:39:13.909Z,1012.4
2017-10-26T12:40:16.299Z,1012.4
2017-10-26T12:41:18.674Z,1012.3
2017-10-26T12:42:21.054Z,1012.3
2017-10-26T12:43:23.437Z,1012.3
2017-10-26T12:44:26.162Z,1012.3
2017-10-26T12:45:28.543Z,1012.3
2017-10-26T12:46:30.929Z,1012.2
2017-10-26T12:47:33.301Z,1012.3
2017-10-26T12:48:35.688Z,1012.3
2017-10-26T12:49:38.062Z,1012.3
2017-10-26T12:50:40.451Z,1012.3
2017-10-26T12:51:43.195Z,1012.3
2017-10-26T12:52:45.582Z,1012.2
2017-10-26T12:53:47.965Z,1012.3
2017-10-26T12:54:50.350Z,1012.4
2017-10-26T12:55:52.730Z,1012.4
2017-10-26T12:56:55.112Z,1012.4
2017-10-26T12:57:57.486Z,1012.4
2017-10-26T12:58:59.869Z,1012.4
2017-10-26T13:00:02.248Z,1012.4
2017-10-26T13:01:04.635Z,1012.4
2017-10-26T13:02:07.014Z,1012.4
2017-10-26T13:03:09.395Z,1012.3